Brendan Turecamo — WDB9024 — position and weather

sailwx.info

Track history (hours):
 
Tides and Currents Weather Stations Pressure Air Temp Water Temp Dewpoint Dewpoint Depression Visibility Wind Speed Wind Dir Waves Ship Positions

Brendan Turecamo

Owner: Moran Towing Corporation, New Canaan, CT. More information available from US FCC via Universal Licensing System and Coast Guard Vessel Documentation Center.

Last reported at 2017-Nov-24 11:00 UTC. Time now 2017-Nov-24 11:01 UTC.
Position N 40°41' W 074°08'.

Length 33 m; draft 4.1 m.

Type: Tug. MMSI: 366946760.

Date/timePositionNaut miles runAvg speedWind from/ knotsBaromVisibWave heightAir tempDewpointWater temp
2017-Nov-24 11:00N 40°41' W 074°08'2 4.0
2017-Nov-24 10:30N 40°39' W 074°08'1 2.1
2017-Nov-24 10:00N 40°39' W 074°07'1 1.2
2017-Nov-24 09:30N 40°38' W 074°08'0 0.0
2017-Nov-24 08:48N 40°38' W 074°08'0 0.0
2017-Nov-24 08:27N 40°38' W 074°08'0 0.0
2017-Nov-24 08:00N 40°38' W 074°08'0 0.0
2017-Nov-24 07:24N 40°38' W 074°08'0 0.0
2017-Nov-24 07:00N 40°38' W 074°08'0 0.0
2017-Nov-24 06:30N 40°38' W 074°08'0 0.0
2017-Nov-24 05:54N 40°38' W 074°08'0 0.0
2017-Nov-24 04:54N 40°38' W 074°08'0 0.0
2017-Nov-24 04:27N 40°38' W 074°08'0 0.0
2017-Nov-24 03:51N 40°38' W 074°08'0 0.0
2017-Nov-24 03:30N 40°38' W 074°08'0 0.0
2017-Nov-24 03:00N 40°38' W 074°08'0 0.0
2017-Nov-24 02:27N 40°38' W 074°08'0 0.2
2017-Nov-24 02:00N 40°39' W 074°08'2 3.5
2017-Nov-24 01:30N 40°40' W 074°08'1 1.6
2017-Nov-24 01:00N 40°41' W 074°09'1 2.8
2017-Nov-24 00:31N 40°40' W 074°09'2 4.8
2017-Nov-24 00:00N 40°38' W 074°11'0 0.0
2017-Nov-23 23:30N 40°38' W 074°11'0 0.0
2017-Nov-23 23:00N 40°38' W 074°11'0 0.0
2017-Nov-23 22:30N 40°38' W 074°11'0 0.0
2017-Nov-23 22:00N 40°38' W 074°11'0 0.0
2017-Nov-23 21:27N 40°38' W 074°11'0 0.0
2017-Nov-23 21:00N 40°38' W 074°11'0 0.0
2017-Nov-23 20:30N 40°38' W 074°11'0 0.0
2017-Nov-23 20:00N 40°38' W 074°11'0 0.0
2017-Nov-23 19:30N 40°38' W 074°11'0 0.0
2017-Nov-23 19:00N 40°38' W 074°11'0 0.0
2017-Nov-23 18:24N 40°38' W 074°11'0 0.0
2017-Nov-23 18:00N 40°38' W 074°11'0 0.0
2017-Nov-23 17:30N 40°38' W 074°11'0 0.0
2017-Nov-23 17:00N 40°38' W 074°11'0 0.0
2017-Nov-23 16:27N 40°38' W 074°11'0 0.0
2017-Nov-23 15:54N 40°38' W 074°11'0 0.0
2017-Nov-23 15:27N 40°38' W 074°11'0 0.0
2017-Nov-23 14:57N 40°38' W 074°11'0 0.0
2017-Nov-23 14:15N 40°38' W 074°11'0 0.0
2017-Nov-23 14:00N 40°38' W 074°11'0 0.0
2017-Nov-23 13:30N 40°38' W 074°11'0 0.0
2017-Nov-23 13:00N 40°38' W 074°11'1 1.7
2017-Nov-23 12:30N 40°38' W 074°12'1 1.8
2017-Nov-23 12:00N 40°38' W 074°11'0 0.0
2017-Nov-23 11:29N 40°38' W 074°11'0 0.0
2017-Nov-23 10:59N 40°38' W 074°11'0 0.0
2017-Nov-23 10:29N 40°38' W 074°11'0 0.0
2017-Nov-23 09:59N 40°38' W 074°11'0 0.0
2017-Nov-23 09:30N 40°38' W 074°11'4 7.8
2017-Nov-23 09:00N 40°39' W 074°06'3 6.4
2017-Nov-23 08:30N 40°37' W 074°03'3 6.5
2017-Nov-23 08:00N 40°34' W 074°02'1 1.2
2017-Nov-23 07:30N 40°34' W 074°02'2 4.2
2017-Nov-23 07:00N 40°36' W 074°03'3 5.0
2017-Nov-23 06:30N 40°39' W 074°03'1 2.6
2017-Nov-23 06:01N 40°40' W 074°04'0 0.0
2017-Nov-23 05:31N 40°40' W 074°04'0 0.7
2017-Nov-23 05:00N 40°40' W 074°04'3 5.5
2017-Nov-23 04:30N 40°39' W 074°07'1 2.4
2017-Nov-23 04:00N 40°39' W 074°09'1 2.3
2017-Nov-23 03:30N 40°40' W 074°08'0 0.7
2017-Nov-23 03:00N 40°41' W 074°08'2 4.1
2017-Nov-23 02:30N 40°39' W 074°08'0 0.7
2017-Nov-23 02:00N 40°38' W 074°08'1 1.9
2017-Nov-23 01:30N 40°39' W 074°07'5 9.6
2017-Nov-23 01:00N 40°41' W 074°01'1 1.2
2017-Nov-23 00:31N 40°41' W 074°00'2 3.3
2017-Nov-23 00:00N 40°40' W 074°02'5 9.5
2017-Nov-22 23:30N 40°39' W 074°08'3 5.5
2017-Nov-22 23:00N 40°41' W 074°09'0 0.1
2017-Nov-22 22:30N 40°41' W 074°09'1 2.1
2017-Nov-22 22:00N 40°40' W 074°08'1 1.8
2017-Nov-22 21:30N 40°40' W 074°09'2 4.0
2017-Nov-22 21:00N 40°39' W 074°06'3 5.9
2017-Nov-22 20:30N 40°37' W 074°03'4 7.7
2017-Nov-22 20:00N 40°39' W 074°08'0 0.1
2017-Nov-22 19:29N 40°38' W 074°08'  
2017-Nov-20 00:29N 40°38' W 074°08'0 0.0
2017-Nov-20 00:00N 40°38' W 074°08'0 0.0
2017-Nov-19 23:03N 40°38' W 074°08'0 0.0
2017-Nov-19 23:00N 40°38' W 074°08'3 5.6
2017-Nov-19 22:30N 40°39' W 074°04'2 4.3
2017-Nov-19 22:00N 40°37' W 074°03'0 0.8
2017-Nov-19 21:30N 40°37' W 074°03'4 7.8
2017-Nov-19 21:00N 40°39' W 074°08'0 0.2
2017-Nov-19 20:27N 40°38' W 074°08'0 0.0
2017-Nov-19 19:59N 40°38' W 074°08'0 0.0
2017-Nov-19 19:30N 40°38' W 074°08'0 0.0
2017-Nov-19 19:00N 40°38' W 074°08'0 0.0
2017-Nov-19 18:30N 40°38' W 074°08'0 0.0
2017-Nov-19 17:58N 40°38' W 074°08'0 0.0
2017-Nov-19 17:30N 40°38' W 074°08'0 0.0
2017-Nov-19 17:00N 40°38' W 074°08'0 0.0
2017-Nov-19 16:30N 40°38' W 074°08'0 0.0
2017-Nov-19 15:59N 40°38' W 074°08'0 0.0
2017-Nov-19 15:29N 40°38' W 074°08'0 0.0
2017-Nov-19 14:57N 40°38' W 074°08'0 0.0
2017-Nov-19 14:30N 40°38' W 074°08'0 0.0
2017-Nov-19 12:10N 40°38' W 074°08'0 0.1
2017-Nov-19 11:59N 40°38' W 074°08'0 0.0
2017-Nov-19 11:27N 40°38' W 074°08'0 0.0
2017-Nov-19 11:00N 40°38' W 074°08'0 0.0
2017-Nov-19 10:30N 40°38' W 074°08'0 0.0
2017-Nov-19 10:00N 40°38' W 074°08'0 0.0
2017-Nov-19 09:30N 40°38' W 074°08'0 0.0
2017-Nov-19 09:00N 40°38' W 074°08'0 0.0
2017-Nov-19 08:30N 40°38' W 074°08'0 0.0
2017-Nov-19 08:00N 40°38' W 074°08'0 0.0
2017-Nov-19 07:30N 40°38' W 074°08'0 0.0
2017-Nov-19 07:00N 40°38' W 074°08'0 0.0
2017-Nov-19 06:30N 40°38' W 074°08'0 0.0
2017-Nov-19 06:00N 40°38' W 074°08'0 0.0
2017-Nov-19 05:30N 40°38' W 074°08'0 0.0
2017-Nov-19 05:00N 40°38' W 074°08'0 0.0
2017-Nov-19 04:30N 40°38' W 074°08'0 0.0
2017-Nov-19 03:59N 40°38' W 074°08'0 0.0
2017-Nov-19 03:30N 40°38' W 074°08'0 0.0
2017-Nov-19 03:00N 40°38' W 074°08'0 0.0
2017-Nov-19 02:30N 40°38' W 074°08'0 0.0
2017-Nov-19 02:00N 40°38' W 074°08'0 0.0
2017-Nov-19 01:30N 40°38' W 074°08'0 0.0
2017-Nov-19 01:00N 40°38' W 074°08'0 0.0
2017-Nov-19 00:30N 40°38' W 074°08'0 0.0
2017-Nov-19 00:00N 40°38' W 074°08'0 0.0
2017-Nov-18 23:30N 40°38' W 074°08'0 0.0
2017-Nov-18 23:00N 40°38' W 074°08'0 0.0
2017-Nov-18 22:30N 40°38' W 074°08'0 0.0
2017-Nov-18 22:00N 40°38' W 074°08'0 0.0
2017-Nov-18 21:30N 40°38' W 074°08'0 0.0
2017-Nov-18 21:00N 40°38' W 074°08'0 0.0
2017-Nov-18 20:30N 40°38' W 074°08'0 0.0
2017-Nov-18 20:00N 40°38' W 074°08'0 0.0
2017-Nov-18 19:30N 40°38' W 074°08'0 0.0
2017-Nov-18 19:00N 40°38' W 074°08'0 0.0
2017-Nov-18 18:30N 40°38' W 074°08'0 0.0
2017-Nov-18 18:00N 40°38' W 074°08'0 0.0
2017-Nov-18 17:30N 40°38' W 074°08'0 0.0
2017-Nov-18 17:00N 40°38' W 074°08'0 0.0
2017-Nov-18 16:30N 40°38' W 074°08'0 0.0
2017-Nov-18 16:00N 40°38' W 074°08'0 0.0
2017-Nov-18 15:30N 40°38' W 074°08'0 0.0
2017-Nov-18 15:00N 40°38' W 074°08'0 0.0
2017-Nov-18 14:28N 40°38' W 074°08'0 0.0
2017-Nov-18 14:00N 40°38' W 074°08'0 0.0
2017-Nov-18 13:30N 40°38' W 074°08'1 2.7
2017-Nov-18 13:00N 40°39' W 074°09'3 6.1
2017-Nov-18 12:30N 40°36' W 074°12'0 0.0
2017-Nov-18 12:00N 40°36' W 074°12'1 0.5
2017-Nov-18 10:38N 40°36' W 074°12'0 0.0
2017-Nov-18 10:18N 40°36' W 074°12'0 0.0
2017-Nov-18 10:00N 40°36' W 074°12'0 0.0
2017-Nov-18 09:30N 40°36' W 074°12'1 1.4
2017-Nov-18 08:59N 40°35' W 074°12'0 0.1
2017-Nov-18 07:34N 40°35' W 074°12'0 5.7
2017-Nov-18 07:30N 40°36' W 074°12'4 7.5
2017-Nov-18 07:00N 40°39' W 074°10'1 2.9
2017-Nov-18 06:30N 40°38' W 074°08'0 0.0
2017-Nov-18 06:00N 40°38' W 074°08'0 0.0
2017-Nov-18 05:30N 40°38' W 074°08'0 0.0
2017-Nov-18 05:00N 40°38' W 074°08'0 0.0
2017-Nov-18 04:30N 40°38' W 074°08'0 0.0
2017-Nov-18 04:00N 40°38' W 074°08'0 0.0
2017-Nov-18 03:30N 40°38' W 074°08'0 0.0
2017-Nov-18 03:00N 40°38' W 074°08'1 1.8
2017-Nov-18 02:30N 40°39' W 074°09'3 5.7
2017-Nov-18 02:00N 40°41' W 074°08'2 3.3
2017-Nov-18 01:30N 40°40' W 074°08'2 3.2
2017-Nov-18 01:00N 40°39' W 074°07'1 1.1
2017-Nov-18 00:30N 40°38' W 074°08'0 0.0
2017-Nov-18 00:00N 40°38' W 074°08'0 0.4
2017-Nov-17 23:30N 40°39' W 074°08'3 5.5
2017-Nov-17 22:59N 40°41' W 074°08'1 2.1
2017-Nov-17 22:30N 40°40' W 074°08'2 2.8
2017-Nov-17 21:49N 40°38' W 074°08'0 0.0
2017-Nov-17 21:10N 40°38' W 074°08'0 0.0
2017-Nov-17 21:00N 40°38' W 074°08'0 0.0
2017-Nov-17 20:30N 40°38' W 074°08'0 0.0
2017-Nov-17 19:59N 40°38' W 074°08'0 0.0
2017-Nov-17 19:30N 40°38' W 074°08'0 0.0
2017-Nov-17 18:59N 40°38' W 074°08'0 0.0
2017-Nov-17 18:30N 40°38' W 074°08'0 0.0
2017-Nov-17 17:59N 40°38' W 074°08'0 0.0
2017-Nov-17 17:25N 40°38' W 074°08'0 0.0
2017-Nov-17 16:25N 40°38' W 074°08'0 0.0
2017-Nov-17 15:16N 40°38' W 074°08'0 0.0
2017-Nov-17 14:57N 40°38' W 074°08'0 0.0
2017-Nov-17 14:07N 40°38' W 074°08'0 0.0
2017-Nov-17 13:03N 40°38' W 074°08'0 0.0
2017-Nov-17 13:00N 40°38' W 074°08'0 0.0
2017-Nov-17 12:27N 40°38' W 074°08'1 1.6
2017-Nov-17 12:00N 40°39' W 074°09'2 4.7
2017-Nov-17 11:30N 40°41' W 074°09'1 1.1
2017-Nov-17 11:00N 40°41' W 074°08'2 4.0
2017-Nov-17 10:30N 40°39' W 074°08'4 7.5
2017-Nov-17 10:00N 40°38' W 074°03'0 0.8
2017-Nov-17 09:30N 40°39' W 074°04'3 6.2
2017-Nov-17 09:00N 40°38' W 074°08'0 0.0
2017-Nov-17 08:30N 40°38' W 074°08'0 0.0
2017-Nov-17 08:00N 40°38' W 074°08'0 0.0
2017-Nov-17 07:30N 40°38' W 074°08'0 0.0
2017-Nov-17 07:00N 40°38' W 074°08'0 0.0
2017-Nov-17 06:30N 40°38' W 074°08'0 0.0
2017-Nov-17 06:00N 40°38' W 074°08'0 0.0
2017-Nov-17 05:30N 40°38' W 074°08'0 0.0
2017-Nov-17 05:00N 40°38' W 074°08'0 0.0
2017-Nov-17 04:30N 40°38' W 074°08'0 0.0
2017-Nov-17 04:00N 40°38' W 074°08'0 0.0
2017-Nov-17 03:30N 40°38' W 074°08'0 0.0
2017-Nov-17 03:00N 40°38' W 074°08'0 0.0
2017-Nov-17 02:30N 40°38' W 074°08'0 0.0
2017-Nov-17 01:59N 40°38' W 074°08'0 0.0
2017-Nov-17 01:29N 40°38' W 074°08'2 3.4
2017-Nov-17 01:00N 40°40' W 074°08'2 3.2
2017-Nov-17 00:30N 40°42' W 074°08'0 0.5
2017-Nov-17 00:00N 40°42' W 074°09'0 0.2
2017-Nov-16 23:30N 40°42' W 074°09'0 0.0
2017-Nov-16 23:00N 40°42' W 074°09'0 0.0
2017-Nov-16 22:30N 40°42' W 074°09'0 0.4
2017-Nov-16 22:00N 40°42' W 074°09'0 0.9
2017-Nov-16 21:30N 40°42' W 074°08'3 6.2
2017-Nov-16 21:00N 40°39' W 074°08'5 9.2
2017-Nov-16 20:30N 40°41' W 074°02'2 3.3
2017-Nov-16 20:00N 40°41' W 074°00'3 6.5
2017-Nov-16 19:30N 40°40' W 074°04'0 0.0
2017-Nov-16 19:00N 40°40' W 074°04'0 0.0
2017-Nov-16 18:30N 40°40' W 074°04'1 1.6
2017-Nov-16 18:00N 40°40' W 074°03'2 4.7
2017-Nov-16 17:30N 40°41' W 074°01'510.1
2017-Nov-16 17:00N 40°39' W 074°07'1 0.2
2017-Nov-16 13:24N 40°38' W 074°08'0 0.0
2017-Nov-16 12:32N 40°38' W 074°08'0 0.0
2017-Nov-16 12:23N 40°38' W 074°08'0 0.0
2017-Nov-16 12:00N 40°38' W 074°08'2 3.4
2017-Nov-16 11:30N 40°39' W 074°10'2 0.7
2017-Nov-16 09:04N 40°38' W 074°12'1 8.6
2017-Nov-16 09:00N 40°38' W 074°12'3 5.7
2017-Nov-16 08:30N 40°38' W 074°08'0 0.0
2017-Nov-16 08:00N 40°38' W 074°08'0 0.0
2017-Nov-16 07:30N 40°38' W 074°08'3 6.5
2017-Nov-16 07:00N 40°42' W 074°08'0 0.3
2017-Nov-16 06:30N 40°42' W 074°09'3 6.0
2017-Nov-16 06:00N 40°39' W 074°09'3 6.9
2017-Nov-16 05:30N 40°39' W 074°05'4 7.6
2017-Nov-16 05:00N 40°41' W 074°01'0 0.4
2017-Nov-16 04:30N 40°41' W 074°00'0 0.0
2017-Nov-16 04:01N 40°41' W 074°00'0 0.1
2017-Nov-16 03:30N 40°41' W 074°00'0 0.0
2017-Nov-16 03:00N 40°41' W 074°00'3 5.5
2017-Nov-16 02:30N 40°40' W 074°03'4 6.7
2017-Nov-16 01:58N 40°38' W 074°08'0 0.0
2017-Nov-15 23:32N 40°38' W 074°08'0 0.1
2017-Nov-15 23:29N 40°38' W 074°08'0 0.0
2017-Nov-15 23:00N 40°38' W 074°08'0 0.0
2017-Nov-15 20:59N 40°38' W 074°08'0 0.0
2017-Nov-15 20:30N 40°38' W 074°08'0 0.0
2017-Nov-15 20:00N 40°38' W 074°08'1 2.1
2017-Nov-15 19:30N 40°39' W 074°09'2 3.5
2017-Nov-15 19:00N 40°41' W 074°09'1 1.6
2017-Nov-15 18:30N 40°40' W 074°08'2 3.2
2017-Nov-15 17:59N 40°39' W 074°08'2 5.1
2017-Nov-15 17:30N 40°39' W 074°05'2 3.9
2017-Nov-15 17:00N 40°38' W 074°03'1 2.2
2017-Nov-15 16:30N 40°37' W 074°03'0 0.7
2017-Nov-15 16:00N 40°36' W 074°03'1 1.4
2017-Nov-15 15:30N 40°37' W 074°03'4 7.5
2017-Nov-15 15:00N 40°38' W 074°08'0 0.0
2017-Nov-15 14:30N 40°38' W 074°08'0 0.0
2017-Nov-15 13:59N 40°38' W 074°08'0 0.0
2017-Nov-15 13:26N 40°38' W 074°08'0 0.0
2017-Nov-15 13:00N 40°38' W 074°08'0 0.0
2017-Nov-15 12:29N 40°38' W 074°08'1 3.1
2017-Nov-15 12:00N 40°40' W 074°09'2 3.8
2017-Nov-15 11:30N 40°42' W 074°08'0 1.0
2017-Nov-15 11:00N 40°41' W 074°08'2 3.5
2017-Nov-15 10:30N 40°40' W 074°09'1 2.6
2017-Nov-15 10:00N 40°38' W 074°08'0 0.0
2017-Nov-15 09:30N 40°38' W 074°08'0 0.0
2017-Nov-15 09:00N 40°38' W 074°08'0 0.0
2017-Nov-15 08:30N 40°38' W 074°08'0 0.0
2017-Nov-15 08:00N 40°38' W 074°08'0 0.0
2017-Nov-15 07:30N 40°38' W 074°08'0 0.0
2017-Nov-15 07:00N 40°38' W 074°08'0 0.0
2017-Nov-15 06:30N 40°38' W 074°08'0 0.0
2017-Nov-15 06:00N 40°38' W 074°08'0 0.0
2017-Nov-15 05:30N 40°38' W 074°08'0 0.0
2017-Nov-15 04:59N 40°38' W 074°08'0 0.0
2017-Nov-15 04:30N 40°38' W 074°08'0 0.0
2017-Nov-15 04:00N 40°38' W 074°08'0 0.0
2017-Nov-15 03:30N 40°38' W 074°08'0 0.0
2017-Nov-15 03:00N 40°38' W 074°08'0 0.0
2017-Nov-15 02:30N 40°38' W 074°08'0 0.0
2017-Nov-15 02:00N 40°38' W 074°08'0 0.0
2017-Nov-15 01:30N 40°38' W 074°08'0 0.0
2017-Nov-15 01:00N 40°38' W 074°08'0 0.0
2017-Nov-15 00:28N 40°38' W 074°08'4 7.6
2017-Nov-15 00:00N 40°37' W 074°12'1 0.3
2017-Nov-14 19:28N 40°36' W 074°12'4 8.1
2017-Nov-14 19:00N 40°39' W 074°08'0 0.6
2017-Nov-14 18:30N 40°39' W 074°08'0 0.0
2017-Nov-14 18:00N 40°39' W 074°08'0 0.0
2017-Nov-14 17:30N 40°39' W 074°08'1 2.6
2017-Nov-14 16:59N 40°39' W 074°06'3 5.8
2017-Nov-14 16:30N 40°37' W 074°03'3 5.7
2017-Nov-14 16:00N 40°39' W 074°06'1 0.9
2017-Nov-14 14:44N 40°38' W 074°08'1 6.0
2017-Nov-14 14:30N 40°39' W 074°06'2 4.7
2017-Nov-14 14:00N 40°39' W 074°09'2 4.3
2017-Nov-14 13:30N 40°41' W 074°09'0 0.2
2017-Nov-14 13:00N 40°41' W 074°09'2 4.3
2017-Nov-14 12:30N 40°39' W 074°08'0 0.8
2017-Nov-14 12:00N 40°38' W 074°08'0 0.0
2017-Nov-14 11:30N 40°38' W 074°08'0 0.0
2017-Nov-14 11:00N 40°38' W 074°08'0 0.0
2017-Nov-14 10:30N 40°38' W 074°08'  
Track history (hours):
 
Tides and Currents Weather Stations Pressure Air Temp Water Temp Dewpoint Dewpoint Depression Visibility Wind Speed Wind Dir Waves Ship Positions

Brendan Turecamo

Owner: Moran Towing Corporation, New Canaan, CT. More information available from US FCC via Universal Licensing System and Coast Guard Vessel Documentation Center.

Last reported at 2017-Nov-24 11:00 UTC. Time now 2017-Nov-24 11:01 UTC.
Position N 40°41' W 074°08'.

Length 33 m; draft 4.1 m.

Type: Tug. MMSI: 366946760.

Date/timePositionNaut miles runAvg speedWind from/ knotsBaromVisibWave heightAir tempDewpointWater temp
2017-Nov-24 11:00N 40°41' W 074°08'2 4.0
2017-Nov-24 10:30N 40°39' W 074°08'1 2.1
2017-Nov-24 10:00N 40°39' W 074°07'1 1.2
2017-Nov-24 09:30N 40°38' W 074°08'0 0.0
2017-Nov-24 08:48N 40°38' W 074°08'0 0.0
2017-Nov-24 08:27N 40°38' W 074°08'0 0.0
2017-Nov-24 08:00N 40°38' W 074°08'0 0.0
2017-Nov-24 07:24N 40°38' W 074°08'0 0.0
2017-Nov-24 07:00N 40°38' W 074°08'0 0.0
2017-Nov-24 06:30N 40°38' W 074°08'0 0.0
2017-Nov-24 05:54N 40°38' W 074°08'0 0.0
2017-Nov-24 04:54N 40°38' W 074°08'0 0.0
2017-Nov-24 04:27N 40°38' W 074°08'0 0.0
2017-Nov-24 03:51N 40°38' W 074°08'0 0.0
2017-Nov-24 03:30N 40°38' W 074°08'0 0.0
2017-Nov-24 03:00N 40°38' W 074°08'0 0.0
2017-Nov-24 02:27N 40°38' W 074°08'0 0.2
2017-Nov-24 02:00N 40°39' W 074°08'2 3.5
2017-Nov-24 01:30N 40°40' W 074°08'1 1.6
2017-Nov-24 01:00N 40°41' W 074°09'1 2.8
2017-Nov-24 00:31N 40°40' W 074°09'2 4.8
2017-Nov-24 00:00N 40°38' W 074°11'0 0.0
2017-Nov-23 23:30N 40°38' W 074°11'0 0.0
2017-Nov-23 23:00N 40°38' W 074°11'0 0.0
2017-Nov-23 22:30N 40°38' W 074°11'0 0.0
2017-Nov-23 22:00N 40°38' W 074°11'0 0.0
2017-Nov-23 21:27N 40°38' W 074°11'0 0.0
2017-Nov-23 21:00N 40°38' W 074°11'0 0.0
2017-Nov-23 20:30N 40°38' W 074°11'0 0.0
2017-Nov-23 20:00N 40°38' W 074°11'0 0.0
2017-Nov-23 19:30N 40°38' W 074°11'0 0.0
2017-Nov-23 19:00N 40°38' W 074°11'0 0.0
2017-Nov-23 18:24N 40°38' W 074°11'0 0.0
2017-Nov-23 18:00N 40°38' W 074°11'0 0.0
2017-Nov-23 17:30N 40°38' W 074°11'0 0.0
2017-Nov-23 17:00N 40°38' W 074°11'0 0.0
2017-Nov-23 16:27N 40°38' W 074°11'0 0.0
2017-Nov-23 15:54N 40°38' W 074°11'0 0.0
2017-Nov-23 15:27N 40°38' W 074°11'0 0.0
2017-Nov-23 14:57N 40°38' W 074°11'0 0.0
2017-Nov-23 14:15N 40°38' W 074°11'0 0.0
2017-Nov-23 14:00N 40°38' W 074°11'0 0.0
2017-Nov-23 13:30N 40°38' W 074°11'0 0.0
2017-Nov-23 13:00N 40°38' W 074°11'1 1.7
2017-Nov-23 12:30N 40°38' W 074°12'1 1.8
2017-Nov-23 12:00N 40°38' W 074°11'0 0.0
2017-Nov-23 11:29N 40°38' W 074°11'0 0.0
2017-Nov-23 10:59N 40°38' W 074°11'0 0.0
2017-Nov-23 10:29N 40°38' W 074°11'0 0.0
2017-Nov-23 09:59N 40°38' W 074°11'0 0.0
2017-Nov-23 09:30N 40°38' W 074°11'4 7.8
2017-Nov-23 09:00N 40°39' W 074°06'3 6.4
2017-Nov-23 08:30N 40°37' W 074°03'3 6.5
2017-Nov-23 08:00N 40°34' W 074°02'1 1.2
2017-Nov-23 07:30N 40°34' W 074°02'2 4.2
2017-Nov-23 07:00N 40°36' W 074°03'3 5.0
2017-Nov-23 06:30N 40°39' W 074°03'1 2.6
2017-Nov-23 06:01N 40°40' W 074°04'0 0.0
2017-Nov-23 05:31N 40°40' W 074°04'0 0.7
2017-Nov-23 05:00N 40°40' W 074°04'3 5.5
2017-Nov-23 04:30N 40°39' W 074°07'1 2.4
2017-Nov-23 04:00N 40°39' W 074°09'1 2.3
2017-Nov-23 03:30N 40°40' W 074°08'0 0.7
2017-Nov-23 03:00N 40°41' W 074°08'2 4.1
2017-Nov-23 02:30N 40°39' W 074°08'0 0.7
2017-Nov-23 02:00N 40°38' W 074°08'1 1.9
2017-Nov-23 01:30N 40°39' W 074°07'5 9.6
2017-Nov-23 01:00N 40°41' W 074°01'1 1.2
2017-Nov-23 00:31N 40°41' W 074°00'2 3.3
2017-Nov-23 00:00N 40°40' W 074°02'5 9.5
2017-Nov-22 23:30N 40°39' W 074°08'3 5.5
2017-Nov-22 23:00N 40°41' W 074°09'0 0.1
2017-Nov-22 22:30N 40°41' W 074°09'1 2.1
2017-Nov-22 22:00N 40°40' W 074°08'1 1.8
2017-Nov-22 21:30N 40°40' W 074°09'2 4.0
2017-Nov-22 21:00N 40°39' W 074°06'3 5.9
2017-Nov-22 20:30N 40°37' W 074°03'4 7.7
2017-Nov-22 20:00N 40°39' W 074°08'0 0.1
2017-Nov-22 19:29N 40°38' W 074°08'  
2017-Nov-20 00:29N 40°38' W 074°08'0 0.0
2017-Nov-20 00:00N 40°38' W 074°08'0 0.0
2017-Nov-19 23:03N 40°38' W 074°08'0 0.0
2017-Nov-19 23:00N 40°38' W 074°08'3 5.6
2017-Nov-19 22:30N 40°39' W 074°04'2 4.3
2017-Nov-19 22:00N 40°37' W 074°03'0 0.8
2017-Nov-19 21:30N 40°37' W 074°03'4 7.8
2017-Nov-19 21:00N 40°39' W 074°08'0 0.2
2017-Nov-19 20:27N 40°38' W 074°08'0 0.0
2017-Nov-19 19:59N 40°38' W 074°08'0 0.0
2017-Nov-19 19:30N 40°38' W 074°08'0 0.0
2017-Nov-19 19:00N 40°38' W 074°08'0 0.0
2017-Nov-19 18:30N 40°38' W 074°08'0 0.0
2017-Nov-19 17:58N 40°38' W 074°08'0 0.0
2017-Nov-19 17:30N 40°38' W 074°08'0 0.0
2017-Nov-19 17:00N 40°38' W 074°08'0 0.0
2017-Nov-19 16:30N 40°38' W 074°08'0 0.0
2017-Nov-19 15:59N 40°38' W 074°08'0 0.0
2017-Nov-19 15:29N 40°38' W 074°08'0 0.0
2017-Nov-19 14:57N 40°38' W 074°08'0 0.0
2017-Nov-19 14:30N 40°38' W 074°08'0 0.0
2017-Nov-19 12:10N 40°38' W 074°08'0 0.1
2017-Nov-19 11:59N 40°38' W 074°08'0 0.0
2017-Nov-19 11:27N 40°38' W 074°08'0 0.0
2017-Nov-19 11:00N 40°38' W 074°08'0 0.0
2017-Nov-19 10:30N 40°38' W 074°08'0 0.0
2017-Nov-19 10:00N 40°38' W 074°08'0 0.0
2017-Nov-19 09:30N 40°38' W 074°08'0 0.0
2017-Nov-19 09:00N 40°38' W 074°08'0 0.0
2017-Nov-19 08:30N 40°38' W 074°08'0 0.0
2017-Nov-19 08:00N 40°38' W 074°08'0 0.0
2017-Nov-19 07:30N 40°38' W 074°08'0 0.0
2017-Nov-19 07:00N 40°38' W 074°08'0 0.0
2017-Nov-19 06:30N 40°38' W 074°08'0 0.0
2017-Nov-19 06:00N 40°38' W 074°08'0 0.0
2017-Nov-19 05:30N 40°38' W 074°08'0 0.0
2017-Nov-19 05:00N 40°38' W 074°08'0 0.0
2017-Nov-19 04:30N 40°38' W 074°08'0 0.0
2017-Nov-19 03:59N 40°38' W 074°08'0 0.0
2017-Nov-19 03:30N 40°38' W 074°08'0 0.0
2017-Nov-19 03:00N 40°38' W 074°08'0 0.0
2017-Nov-19 02:30N 40°38' W 074°08'0 0.0
2017-Nov-19 02:00N 40°38' W 074°08'0 0.0
2017-Nov-19 01:30N 40°38' W 074°08'0 0.0
2017-Nov-19 01:00N 40°38' W 074°08'0 0.0
2017-Nov-19 00:30N 40°38' W 074°08'0 0.0
2017-Nov-19 00:00N 40°38' W 074°08'0 0.0
2017-Nov-18 23:30N 40°38' W 074°08'0 0.0
2017-Nov-18 23:00N 40°38' W 074°08'0 0.0
2017-Nov-18 22:30N 40°38' W 074°08'0 0.0
2017-Nov-18 22:00N 40°38' W 074°08'0 0.0
2017-Nov-18 21:30N 40°38' W 074°08'0 0.0
2017-Nov-18 21:00N 40°38' W 074°08'0 0.0
2017-Nov-18 20:30N 40°38' W 074°08'0 0.0
2017-Nov-18 20:00N 40°38' W 074°08'0 0.0
2017-Nov-18 19:30N 40°38' W 074°08'0 0.0
2017-Nov-18 19:00N 40°38' W 074°08'0 0.0
2017-Nov-18 18:30N 40°38' W 074°08'0 0.0
2017-Nov-18 18:00N 40°38' W 074°08'0 0.0
2017-Nov-18 17:30N 40°38' W 074°08'0 0.0
2017-Nov-18 17:00N 40°38' W 074°08'0 0.0
2017-Nov-18 16:30N 40°38' W 074°08'0 0.0
2017-Nov-18 16:00N 40°38' W 074°08'0 0.0
2017-Nov-18 15:30N 40°38' W 074°08'0 0.0
2017-Nov-18 15:00N 40°38' W 074°08'0 0.0
2017-Nov-18 14:28N 40°38' W 074°08'0 0.0
2017-Nov-18 14:00N 40°38' W 074°08'0 0.0
2017-Nov-18 13:30N 40°38' W 074°08'1 2.7
2017-Nov-18 13:00N 40°39' W 074°09'3 6.1
2017-Nov-18 12:30N 40°36' W 074°12'0 0.0
2017-Nov-18 12:00N 40°36' W 074°12'1 0.5
2017-Nov-18 10:38N 40°36' W 074°12'0 0.0
2017-Nov-18 10:18N 40°36' W 074°12'0 0.0
2017-Nov-18 10:00N 40°36' W 074°12'0 0.0
2017-Nov-18 09:30N 40°36' W 074°12'1 1.4
2017-Nov-18 08:59N 40°35' W 074°12'0 0.1
2017-Nov-18 07:34N 40°35' W 074°12'0 5.7
2017-Nov-18 07:30N 40°36' W 074°12'4 7.5
2017-Nov-18 07:00N 40°39' W 074°10'1 2.9
2017-Nov-18 06:30N 40°38' W 074°08'0 0.0
2017-Nov-18 06:00N 40°38' W 074°08'0 0.0
2017-Nov-18 05:30N 40°38' W 074°08'0 0.0
2017-Nov-18 05:00N 40°38' W 074°08'0 0.0
2017-Nov-18 04:30N 40°38' W 074°08'0 0.0
2017-Nov-18 04:00N 40°38' W 074°08'0 0.0
2017-Nov-18 03:30N 40°38' W 074°08'0 0.0
2017-Nov-18 03:00N 40°38' W 074°08'1 1.8
2017-Nov-18 02:30N 40°39' W 074°09'3 5.7
2017-Nov-18 02:00N 40°41' W 074°08'2 3.3
2017-Nov-18 01:30N 40°40' W 074°08'2 3.2
2017-Nov-18 01:00N 40°39' W 074°07'1 1.1
2017-Nov-18 00:30N 40°38' W 074°08'0 0.0
2017-Nov-18 00:00N 40°38' W 074°08'0 0.4
2017-Nov-17 23:30N 40°39' W 074°08'3 5.5
2017-Nov-17 22:59N 40°41' W 074°08'1 2.1
2017-Nov-17 22:30N 40°40' W 074°08'2 2.8
2017-Nov-17 21:49N 40°38' W 074°08'0 0.0
2017-Nov-17 21:10N 40°38' W 074°08'0 0.0
2017-Nov-17 21:00N 40°38' W 074°08'0 0.0
2017-Nov-17 20:30N 40°38' W 074°08'0 0.0
2017-Nov-17 19:59N 40°38' W 074°08'0 0.0
2017-Nov-17 19:30N 40°38' W 074°08'0 0.0
2017-Nov-17 18:59N 40°38' W 074°08'0 0.0
2017-Nov-17 18:30N 40°38' W 074°08'0 0.0
2017-Nov-17 17:59N 40°38' W 074°08'0 0.0
2017-Nov-17 17:25N 40°38' W 074°08'0 0.0
2017-Nov-17 16:25N 40°38' W 074°08'0 0.0
2017-Nov-17 15:16N 40°38' W 074°08'0 0.0
2017-Nov-17 14:57N 40°38' W 074°08'0 0.0
2017-Nov-17 14:07N 40°38' W 074°08'0 0.0
2017-Nov-17 13:03N 40°38' W 074°08'0 0.0
2017-Nov-17 13:00N 40°38' W 074°08'0 0.0
2017-Nov-17 12:27N 40°38' W 074°08'1 1.6
2017-Nov-17 12:00N 40°39' W 074°09'2 4.7
2017-Nov-17 11:30N 40°41' W 074°09'1 1.1
2017-Nov-17 11:00N 40°41' W 074°08'2 4.0
2017-Nov-17 10:30N 40°39' W 074°08'4 7.5
2017-Nov-17 10:00N 40°38' W 074°03'0 0.8
2017-Nov-17 09:30N 40°39' W 074°04'3 6.2
2017-Nov-17 09:00N 40°38' W 074°08'0 0.0
2017-Nov-17 08:30N 40°38' W 074°08'0 0.0
2017-Nov-17 08:00N 40°38' W 074°08'0 0.0
2017-Nov-17 07:30N 40°38' W 074°08'0 0.0
2017-Nov-17 07:00N 40°38' W 074°08'0 0.0
2017-Nov-17 06:30N 40°38' W 074°08'0 0.0
2017-Nov-17 06:00N 40°38' W 074°08'0 0.0
2017-Nov-17 05:30N 40°38' W 074°08'0 0.0
2017-Nov-17 05:00N 40°38' W 074°08'0 0.0
2017-Nov-17 04:30N 40°38' W 074°08'0 0.0
2017-Nov-17 04:00N 40°38' W 074°08'0 0.0
2017-Nov-17 03:30N 40°38' W 074°08'0 0.0
2017-Nov-17 03:00N 40°38' W 074°08'0 0.0
2017-Nov-17 02:30N 40°38' W 074°08'0 0.0
2017-Nov-17 01:59N 40°38' W 074°08'0 0.0
2017-Nov-17 01:29N 40°38' W 074°08'2 3.4
2017-Nov-17 01:00N 40°40' W 074°08'2 3.2
2017-Nov-17 00:30N 40°42' W 074°08'0 0.5
2017-Nov-17 00:00N 40°42' W 074°09'0 0.2
2017-Nov-16 23:30N 40°42' W 074°09'0 0.0
2017-Nov-16 23:00N 40°42' W 074°09'0 0.0
2017-Nov-16 22:30N 40°42' W 074°09'0 0.4
2017-Nov-16 22:00N 40°42' W 074°09'0 0.9
2017-Nov-16 21:30N 40°42' W 074°08'3 6.2
2017-Nov-16 21:00N 40°39' W 074°08'5 9.2
2017-Nov-16 20:30N 40°41' W 074°02'2 3.3
2017-Nov-16 20:00N 40°41' W 074°00'3 6.5
2017-Nov-16 19:30N 40°40' W 074°04'0 0.0
2017-Nov-16 19:00N 40°40' W 074°04'0 0.0
2017-Nov-16 18:30N 40°40' W 074°04'1 1.6
2017-Nov-16 18:00N 40°40' W 074°03'2 4.7
2017-Nov-16 17:30N 40°41' W 074°01'510.1
2017-Nov-16 17:00N 40°39' W 074°07'1 0.2
2017-Nov-16 13:24N 40°38' W 074°08'0 0.0
2017-Nov-16 12:32N 40°38' W 074°08'0 0.0
2017-Nov-16 12:23N 40°38' W 074°08'0 0.0
2017-Nov-16 12:00N 40°38' W 074°08'2 3.4
2017-Nov-16 11:30N 40°39' W 074°10'2 0.7
2017-Nov-16 09:04N 40°38' W 074°12'1 8.6
2017-Nov-16 09:00N 40°38' W 074°12'3 5.7
2017-Nov-16 08:30N 40°38' W 074°08'0 0.0
2017-Nov-16 08:00N 40°38' W 074°08'0 0.0
2017-Nov-16 07:30N 40°38' W 074°08'3 6.5
2017-Nov-16 07:00N 40°42' W 074°08'0 0.3
2017-Nov-16 06:30N 40°42' W 074°09'3 6.0
2017-Nov-16 06:00N 40°39' W 074°09'3 6.9
2017-Nov-16 05:30N 40°39' W 074°05'4 7.6
2017-Nov-16 05:00N 40°41' W 074°01'0 0.4
2017-Nov-16 04:30N 40°41' W 074°00'0 0.0
2017-Nov-16 04:01N 40°41' W 074°00'0 0.1
2017-Nov-16 03:30N 40°41' W 074°00'0 0.0
2017-Nov-16 03:00N 40°41' W 074°00'3 5.5
2017-Nov-16 02:30N 40°40' W 074°03'4 6.7
2017-Nov-16 01:58N 40°38' W 074°08'0 0.0
2017-Nov-15 23:32N 40°38' W 074°08'0 0.1
2017-Nov-15 23:29N 40°38' W 074°08'0 0.0
2017-Nov-15 23:00N 40°38' W 074°08'0 0.0
2017-Nov-15 20:59N 40°38' W 074°08'0 0.0
2017-Nov-15 20:30N 40°38' W 074°08'0 0.0
2017-Nov-15 20:00N 40°38' W 074°08'1 2.1
2017-Nov-15 19:30N 40°39' W 074°09'2 3.5
2017-Nov-15 19:00N 40°41' W 074°09'1 1.6
2017-Nov-15 18:30N 40°40' W 074°08'2 3.2
2017-Nov-15 17:59N 40°39' W 074°08'2 5.1
2017-Nov-15 17:30N 40°39' W 074°05'2 3.9
2017-Nov-15 17:00N 40°38' W 074°03'1 2.2
2017-Nov-15 16:30N 40°37' W 074°03'0 0.7
2017-Nov-15 16:00N 40°36' W 074°03'1 1.4
2017-Nov-15 15:30N 40°37' W 074°03'4 7.5
2017-Nov-15 15:00N 40°38' W 074°08'0 0.0
2017-Nov-15 14:30N 40°38' W 074°08'0 0.0
2017-Nov-15 13:59N 40°38' W 074°08'0 0.0
2017-Nov-15 13:26N 40°38' W 074°08'0 0.0
2017-Nov-15 13:00N 40°38' W 074°08'0 0.0
2017-Nov-15 12:29N 40°38' W 074°08'1 3.1
2017-Nov-15 12:00N 40°40' W 074°09'2 3.8
2017-Nov-15 11:30N 40°42' W 074°08'0 1.0
2017-Nov-15 11:00N 40°41' W 074°08'2 3.5
2017-Nov-15 10:30N 40°40' W 074°09'1 2.6
2017-Nov-15 10:00N 40°38' W 074°08'0 0.0
2017-Nov-15 09:30N 40°38' W 074°08'0 0.0
2017-Nov-15 09:00N 40°38' W 074°08'0 0.0
2017-Nov-15 08:30N 40°38' W 074°08'0 0.0
2017-Nov-15 08:00N 40°38' W 074°08'0 0.0
2017-Nov-15 07:30N 40°38' W 074°08'0 0.0
2017-Nov-15 07:00N 40°38' W 074°08'0 0.0
2017-Nov-15 06:30N 40°38' W 074°08'0 0.0
2017-Nov-15 06:00N 40°38' W 074°08'0 0.0
2017-Nov-15 05:30N 40°38' W 074°08'0 0.0
2017-Nov-15 04:59N 40°38' W 074°08'0 0.0
2017-Nov-15 04:30N 40°38' W 074°08'0 0.0
2017-Nov-15 04:00N 40°38' W 074°08'0 0.0
2017-Nov-15 03:30N 40°38' W 074°08'0 0.0
2017-Nov-15 03:00N 40°38' W 074°08'0 0.0
2017-Nov-15 02:30N 40°38' W 074°08'0 0.0
2017-Nov-15 02:00N 40°38' W 074°08'0 0.0
2017-Nov-15 01:30N 40°38' W 074°08'0 0.0
2017-Nov-15 01:00N 40°38' W 074°08'0 0.0
2017-Nov-15 00:28N 40°38' W 074°08'4 7.6
2017-Nov-15 00:00N 40°37' W 074°12'1 0.3
2017-Nov-14 19:28N 40°36' W 074°12'4 8.1
2017-Nov-14 19:00N 40°39' W 074°08'0 0.6
2017-Nov-14 18:30N 40°39' W 074°08'0 0.0
2017-Nov-14 18:00N 40°39' W 074°08'0 0.0
2017-Nov-14 17:30N 40°39' W 074°08'1 2.6
2017-Nov-14 16:59N 40°39' W 074°06'3 5.8
2017-Nov-14 16:30N 40°37' W 074°03'3 5.7
2017-Nov-14 16:00N 40°39' W 074°06'1 0.9
2017-Nov-14 14:44N 40°38' W 074°08'1 6.0
2017-Nov-14 14:30N 40°39' W 074°06'2 4.7
2017-Nov-14 14:00N 40°39' W 074°09'2 4.3
2017-Nov-14 13:30N 40°41' W 074°09'0 0.2
2017-Nov-14 13:00N 40°41' W 074°09'2 4.3
2017-Nov-14 12:30N 40°39' W 074°08'0 0.8
2017-Nov-14 12:00N 40°38' W 074°08'0 0.0
2017-Nov-14 11:30N 40°38' W 074°08'0 0.0
2017-Nov-14 11:00N 40°38' W 074°08'0 0.0
2017-Nov-14 10:30N 40°38' W 074°08'  

Dump ship's entire track history